Etusivu
METAR-TAF:

METAR-TAF

Lentoasemat :

Vicksburg Tallulah Regional Airport

Tallulah / Vicksburg, Louisiana, Yhdysvallat

Leveyspiiri: 32-20-53N, Pituuspiiri: 091-01-48W, korkeus merenpinnasta: 26 m

Tämänhetkinen sää

Tämä raportti tehtiin 55 minuuttia sitten, kello 22.53 UTC
Tuuli 5 kn lännestä
Lämpötila 24°C
Kosteus 61%
Ilmanpaine 1007 hPa
Näkyvyys: 16.1 km
selkeää

METAR: KTVR 252253Z AUTO 27005KT 10SM CLR 24/16 A2974 RMK AO2 SLP076 T02440161

Aika: 18:48 (23:48 UTC)


TAF: puuttuu

Säähavainnot ja -ennusteet yli 4000 lentoasemalta (METAR- ja TAF-raportit).

Käytössä olevat sääasemat on merkitty karttaan keltaisilla ja punaisilla pisteillä.

Aseta hiiri pisteen päälle nähdäksesi sääaseman nimen.

Klikkaa sitten nähdäksesi säähavainnot ja -ennusteet.

Kartan vaihtaminen: klikkaa mustalla rastilla varustettuja vihreitä pisteitä, niin voit zoomata sisään; viivalla varustettua vihreää pistettä, niin voit zoomata ulos tai vihreitä nuolia, niin pääset viereisille kartoille.


METAR-TAF: